^^
Station Historical Data
Daily Summary for February 11, 2018 Units:  Both    English   Metric
« Previous Day
Next Day »
Daily Weekly Monthly Yearly Custom
  High: Low: Average:
Temperature: TemperatureF °F /  -17.8 °C 60.6 °F /  15.9 °C 68.8 °F /  20.4 °C
Dew Point: DewpointF °F /  -17.8 °C 55.6 °F /  13.1 °C 58.1 °F /  14.5 °C
Humidity: Humidity% 44% 70%
Wind Speed: WindSpeedMPHmph /  0km/h - 2.4mph /  3.9km/h
Wind Gust: WindSpeedGustMPHmph /  0km/h - -
Wind- - SSE
Pressure: PressureIn in /  0 hPa 29.70 in /  1005.6 hPa -
Precipitation: 0.00 in /  0 mm    
Historical Graphs
 
 
Tabular Data for February 11, 2018
Time Temperature Dew Point Pressure Wind Wind Speed Wind Gust Humidity Rainfall Rate (Hourly) solar Conditions
TemperatureF °F /  -17.8 °C DewpointF °F /  -17.8 °C PressureInin /  0hPa Calm     Humidity% HourlyPrecipInin /  0mm SolarRadiationWatts/m^2 W/m2 Conditions
00:03 62.2 °F /  16.8 °C 59.9 °F /  15.5 °C 29.78in /  1008.4hPa SE 2.0mph /  3.2km/h 3.0mph /  4.8km/h 92% 0.01in /  0.25mm 0.0 W/m2
00:09 62.2 °F /  16.8 °C 59.9 °F /  15.5 °C 29.79in /  1008.7hPa ESE 2.0mph /  3.2km/h 3.0mph /  4.8km/h 92% 0.01in /  0.25mm 0.0 W/m2
00:14 62.1 °F /  16.7 °C 59.4 °F /  15.2 °C 29.79in /  1008.7hPa SE 0.9mph /  1.4km/h 4.0mph /  6.4km/h 91% 0.01in /  0.25mm 0.0 W/m2
00:19 62.1 °F /  16.7 °C 59.4 °F /  15.2 °C 29.79in /  1008.7hPa Calm   5.0mph /  8km/h 91% 0.01in /  0.25mm 0.0 W/m2
00:24 61.9 °F /  16.6 °C 59.2 °F /  15.1 °C 29.79in /  1008.7hPa SE 0.9mph /  1.4km/h 3.0mph /  4.8km/h 91% 0.01in /  0.25mm 0.0 W/m2
00:29 61.9 °F /  16.6 °C 59.2 °F /  15.1 °C 29.79in /  1008.7hPa Calm   1.0mph /  1.6km/h 91% 0.01in /  0.25mm 0.0 W/m2
00:34 61.9 °F /  16.6 °C 59.2 °F /  15.1 °C 29.79in /  1008.7hPa Calm     91% 0.01in /  0.25mm 0.0 W/m2
00:39 61.7 °F /  16.5 °C 59.0 °F /  15 °C 29.78in /  1008.4hPa Calm     91% 0.01in /  0.25mm 0.0 W/m2
00:44 61.5 °F /  16.4 °C 58.8 °F /  14.9 °C 29.78in /  1008.4hPa Calm     91% 0.01in /  0.25mm 0.0 W/m2
00:49 61.5 °F /  16.4 °C 58.8 °F /  14.9 °C 29.78in /  1008.4hPa Calm     91% 0.01in /  0.25mm 0.0 W/m2
00:54 61.5 °F /  16.4 °C 59.2 °F /  15.1 °C 29.78in /  1008.4hPa SE 0.9mph /  1.4km/h 5.0mph /  8km/h 92% 0.01in /  0.25mm 0.0 W/m2
01:00 61.7 °F /  16.5 °C 59.4 °F /  15.2 °C 29.78in /  1008.4hPa SE 0.9mph /  1.4km/h 5.0mph /  8km/h 92% 0.00in /  0mm 0.0 W/m2
01:05 61.9 °F /  16.6 °C 59.5 °F /  15.3 °C 29.78in /  1008.4hPa Calm   1.0mph /  1.6km/h 92% 0.00in /  0mm 0.0 W/m2
01:10 61.9 °F /  16.6 °C 59.5 °F /  15.3 °C 29.78in /  1008.4hPa SE 2.9mph /  4.7km/h 3.0mph /  4.8km/h 92% 0.00in /  0mm 0.0 W/m2
01:15 62.1 °F /  16.7 °C 59.7 °F /  15.4 °C 29.78in /  1008.4hPa Calm   3.0mph /  4.8km/h 92% 0.00in /  0mm 0.0 W/m2
01:20 62.1 °F /  16.7 °C 59.7 °F /  15.4 °C 29.78in /  1008.4hPa SW 0.9mph /  1.4km/h 5.0mph /  8km/h 92% 0.00in /  0mm 0.0 W/m2
01:26 62.1 °F /  16.7 °C 59.4 °F /  15.2 °C 29.77in /  1008hPa SSW 7.0mph /  11.3km/h 7.0mph /  11.3km/h 91% 0.00in /  0mm 0.0 W/m2
01:31 62.1 °F /  16.7 °C 59.4 °F /  15.2 °C 29.77in /  1008hPa SE 2.0mph /  3.2km/h 4.0mph /  6.4km/h 91% 0.00in /  0mm 0.0 W/m2
01:36 62.1 °F /  16.7 °C 59.4 °F /  15.2 °C 29.76in /  1007.7hPa SE 2.9mph /  4.7km/h 8.0mph /  12.9km/h 91% 0.00in /  0mm 0.0 W/m2
01:41 61.9 °F /  16.6 °C 59.0 °F /  15 °C 29.76in /  1007.7hPa ESE 2.0mph /  3.2km/h 9.0mph /  14.5km/h 90% 0.00in /  0mm 0.0 W/m2
01:46 61.9 °F /  16.6 °C 59.2 °F /  15.1 °C 29.76in /  1007.7hPa SE 2.9mph /  4.7km/h 8.0mph /  12.9km/h 91% 0.00in /  0mm 0.0 W/m2
01:51 61.9 °F /  16.6 °C 59.2 °F /  15.1 °C 29.75in /  1007.3hPa SSE 2.0mph /  3.2km/h 7.0mph /  11.3km/h 91% 0.00in /  0mm 0.0 W/m2
01:56 61.9 °F /  16.6 °C 59.2 °F /  15.1 °C 29.75in /  1007.3hPa ESE 4.9mph /  7.9km/h 10.0mph /  16.1km/h 91% 0.00in /  0mm 0.0 W/m2
02:01 61.9 °F /  16.6 °C 59.2 °F /  15.1 °C 29.75in /  1007.3hPa Calm   7.0mph /  11.3km/h 91% 0.00in /  0mm 0.0 W/m2
02:06 61.9 °F /  16.6 °C 59.2 °F /  15.1 °C 29.75in /  1007.3hPa Calm   8.0mph /  12.9km/h 91% 0.00in /  0mm 0.0 W/m2
02:11 61.9 °F /  16.6 °C 59.0 °F /  15 °C 29.75in /  1007.3hPa SSW 4.0mph /  6.4km/h 7.0mph /  11.3km/h 90% 0.00in /  0mm 0.0 W/m2
02:17 61.7 °F /  16.5 °C 58.8 °F /  14.9 °C 29.75in /  1007.3hPa South 6.9mph /  11.1km/h 7.0mph /  11.3km/h 90% 0.00in /  0mm 0.0 W/m2
02:22 61.5 °F /  16.4 °C 58.6 °F /  14.8 °C 29.75in /  1007.3hPa SSE 2.9mph /  4.7km/h 5.0mph /  8km/h 90% 0.00in /  0mm 0.0 W/m2
02:28 61.3 °F /  16.3 °C 58.5 °F /  14.7 °C 29.74in /  1007hPa SE 2.0mph /  3.2km/h 7.0mph /  11.3km/h 90% 0.00in /  0mm 0.0 W/m2
02:33 61.2 °F /  16.2 °C 58.3 °F /  14.6 °C 29.74in /  1007hPa SSE 4.9mph /  7.9km/h 7.0mph /  11.3km/h 90% 0.00in /  0mm 0.0 W/m2
02:38 61.2 °F /  16.2 °C 58.3 °F /  14.6 °C 29.74in /  1007hPa SSE 2.0mph /  3.2km/h 9.0mph /  14.5km/h 90% 0.00in /  0mm 0.0 W/m2
02:43 61.0 °F /  16.1 °C 58.3 °F /  14.6 °C 29.74in /  1007hPa Calm   5.0mph /  8km/h 91% 0.00in /  0mm 0.0 W/m2
02:48 61.0 °F /  16.1 °C 58.3 °F /  14.6 °C 29.74in /  1007hPa SSW 0.9mph /  1.4km/h 7.0mph /  11.3km/h 91% 0.00in /  0mm 0.0 W/m2
02:53 61.0 °F /  16.1 °C 58.3 °F /  14.6 °C 29.73in /  1006.7hPa SSW 2.9mph /  4.7km/h 6.0mph /  9.7km/h 91% 0.00in /  0mm 0.0 W/m2
02:58 60.8 °F /  16 °C 58.1 °F /  14.5 °C 29.73in /  1006.7hPa SE 2.0mph /  3.2km/h 8.0mph /  12.9km/h 91% 0.00in /  0mm 0.0 W/m2
03:03 60.8 °F /  16 °C 58.1 °F /  14.5 °C 29.73in /  1006.7hPa South 2.0mph /  3.2km/h 6.0mph /  9.7km/h 91% 0.00in /  0mm 0.0 W/m2
03:08 61.0 °F /  16.1 °C 58.3 °F /  14.6 °C 29.73in /  1006.7hPa SSE 0.9mph /  1.4km/h 10.0mph /  16.1km/h 91% 0.00in /  0mm 0.0 W/m2
03:13 61.0 °F /  16.1 °C 58.3 °F /  14.6 °C 29.73in /  1006.7hPa SW 0.9mph /  1.4km/h 9.0mph /  14.5km/h 91% 0.00in /  0mm 0.0 W/m2
03:18 61.0 °F /  16.1 °C 58.3 °F /  14.6 °C 29.73in /  1006.7hPa SSW 2.9mph /  4.7km/h 10.0mph /  16.1km/h 91% 0.00in /  0mm 0.0 W/m2
03:23 61.0 °F /  16.1 °C 58.3 °F /  14.6 °C 29.73in /  1006.7hPa South 4.0mph /  6.4km/h 13.0mph /  20.9km/h 91% 0.00in /  0mm 0.0 W/m2
03:29 60.8 °F /  16 °C 58.1 °F /  14.5 °C 29.72in /  1006.3hPa South 6.0mph /  9.7km/h 7.0mph /  11.3km/h 91% 0.00in /  0mm 0.0 W/m2
03:34 60.8 °F /  16 °C 58.1 °F /  14.5 °C 29.72in /  1006.3hPa SE 6.9mph /  11.1km/h 11.0mph /  17.7km/h 91% 0.00in /  0mm 0.0 W/m2
03:39 60.8 °F /  16 °C 58.1 °F /  14.5 °C 29.72in /  1006.3hPa SSE 2.9mph /  4.7km/h 4.0mph /  6.4km/h 91% 0.00in /  0mm 0.0 W/m2
03:44 60.8 °F /  16 °C 58.1 °F /  14.5 °C 29.72in /  1006.3hPa ESE 2.9mph /  4.7km/h 11.0mph /  17.7km/h 91% 0.00in /  0mm 0.0 W/m2
03:49 60.6 °F /  15.9 °C 57.9 °F /  14.4 °C 29.72in /  1006.3hPa SE 4.9mph /  7.9km/h 6.0mph /  9.7km/h 91% 0.00in /  0mm 0.0 W/m2
03:54 60.6 °F /  15.9 °C 57.9 °F /  14.4 °C 29.72in /  1006.3hPa Calm   5.0mph /  8km/h 91% 0.00in /  0mm 0.0 W/m2
03:59 60.6 °F /  15.9 °C 57.7 °F /  14.3 °C 29.72in /  1006.3hPa SSE 4.9mph /  7.9km/h 8.0mph /  12.9km/h 90% 0.00in /  0mm 0.0 W/m2
04:04 60.8 °F /  16 °C 57.9 °F /  14.4 °C 29.72in /  1006.3hPa SSE 2.0mph /  3.2km/h 8.0mph /  12.9km/h 90% 0.00in /  0mm 0.0 W/m2
04:09 60.8 °F /  16 °C 57.9 °F /  14.4 °C 29.72in /  1006.3hPa SSE 2.9mph /  4.7km/h 8.0mph /  12.9km/h 90% 0.00in /  0mm 0.0 W/m2
04:15 60.8 °F /  16 °C 57.9 °F /  14.4 °C 29.72in /  1006.3hPa SE 0.9mph /  1.4km/h 8.0mph /  12.9km/h 90% 0.00in /  0mm 0.0 W/m2
04:20 60.8 °F /  16 °C 57.9 °F /  14.4 °C 29.72in /  1006.3hPa SSW 2.0mph /  3.2km/h 6.0mph /  9.7km/h 90% 0.00in /  0mm 0.0 W/m2
04:25 61.0 °F /  16.1 °C 58.1 °F /  14.5 °C 29.72in /  1006.3hPa SSW 2.9mph /  4.7km/h 6.0mph /  9.7km/h 90% 0.00in /  0mm 0.0 W/m2
04:30 61.0 °F /  16.1 °C 57.7 °F /  14.3 °C 29.73in /  1006.7hPa SSW 0.9mph /  1.4km/h 4.0mph /  6.4km/h 89% 0.00in /  0mm 0.0 W/m2
04:35 61.2 °F /  16.2 °C 58.3 °F /  14.6 °C 29.73in /  1006.7hPa SSW 2.0mph /  3.2km/h 7.0mph /  11.3km/h 90% 0.00in /  0mm 0.0 W/m2
04:40 61.2 °F /  16.2 °C 57.9 °F /  14.4 °C 29.73in /  1006.7hPa ESE 4.9mph /  7.9km/h 10.0mph /  16.1km/h 89% 0.00in /  0mm 0.0 W/m2
04:45 61.2 °F /  16.2 °C 57.9 °F /  14.4 °C 29.73in /  1006.7hPa West 0.9mph /  1.4km/h 7.0mph /  11.3km/h 89% 0.00in /  0mm 0.0 W/m2
04:50 61.2 °F /  16.2 °C 57.9 °F /  14.4 °C 29.73in /  1006.7hPa SE 8.9mph /  14.3km/h 9.0mph /  14.5km/h 89% 0.00in /  0mm 0.0 W/m2
04:55 61.2 °F /  16.2 °C 57.9 °F /  14.4 °C 29.73in /  1006.7hPa East 6.0mph /  9.7km/h 9.0mph /  14.5km/h 89% 0.00in /  0mm 0.0 W/m2
05:01 61.2 °F /  16.2 °C 57.9 °F /  14.4 °C 29.73in /  1006.7hPa SSW 0.9mph /  1.4km/h 4.0mph /  6.4km/h 89% 0.00in /  0mm 0.0 W/m2
05:06 61.2 °F /  16.2 °C 57.6 °F /  14.2 °C 29.73in /  1006.7hPa SW 4.9mph /  7.9km/h 7.0mph /  11.3km/h 88% 0.00in /  0mm 0.0 W/m2
05:11 61.3 °F /  16.3 °C 57.7 °F /  14.3 °C 29.73in /  1006.7hPa SE 0.9mph /  1.4km/h 5.0mph /  8km/h 88% 0.00in /  0mm 0.0 W/m2
05:16 61.3 °F /  16.3 °C 57.7 °F /  14.3 °C 29.74in /  1007hPa Calm   3.0mph /  4.8km/h 88% 0.00in /  0mm 0.0 W/m2
05:21 61.3 °F /  16.3 °C 57.7 °F /  14.3 °C 29.73in /  1006.7hPa SSW 0.9mph /  1.4km/h 2.0mph /  3.2km/h 88% 0.00in /  0mm 0.0 W/m2
05:26 61.3 °F /  16.3 °C 57.7 °F /  14.3 °C 29.74in /  1007hPa SSW 2.0mph /  3.2km/h 3.0mph /  4.8km/h 88% 0.00in /  0mm 0.0 W/m2
05:31 61.5 °F /  16.4 °C 57.9 °F /  14.4 °C 29.74in /  1007hPa SE 2.0mph /  3.2km/h 4.0mph /  6.4km/h 88% 0.00in /  0mm 0.0 W/m2
05:36 61.5 °F /  16.4 °C 57.6 °F /  14.2 °C 29.74in /  1007hPa SE 0.9mph /  1.4km/h 2.0mph /  3.2km/h 87% 0.00in /  0mm 0.0 W/m2
05:41 61.5 °F /  16.4 °C 57.6 °F /  14.2 °C 29.74in /  1007hPa Calm     87% 0.00in /  0mm 0.0 W/m2
05:46 61.5 °F /  16.4 °C 57.4 °F /  14.1 °C 29.74in /  1007hPa Calm   2.0mph /  3.2km/h 86% 0.00in /  0mm 0.0 W/m2
05:52 61.5 °F /  16.4 °C 57.4 °F /  14.1 °C 29.74in /  1007hPa Calm     86% 0.00in /  0mm 0.0 W/m2
05:58 61.5 °F /  16.4 °C 57.0 °F /  13.9 °C 29.75in /  1007.3hPa Calm   3.0mph /  4.8km/h 85% 0.00in /  0mm 0.0 W/m2
06:03 61.5 °F /  16.4 °C 57.0 °F /  13.9 °C 29.75in /  1007.3hPa South 2.0mph /  3.2km/h 3.0mph /  4.8km/h 85% 0.00in /  0mm 0.0 W/m2
06:08 61.9 °F /  16.6 °C 57.4 °F /  14.1 °C 29.75in /  1007.3hPa Calm   1.0mph /  1.6km/h 85% 0.00in /  0mm 0.0 W/m2
06:13 61.9 °F /  16.6 °C 57.0 °F /  13.9 °C 29.75in /  1007.3hPa Calm   1.0mph /  1.6km/h 84% 0.00in /  0mm 0.0 W/m2
06:18 61.9 °F /  16.6 °C 57.4 °F /  14.1 °C 29.75in /  1007.3hPa Calm   2.0mph /  3.2km/h 85% 0.00in /  0mm 0.0 W/m2
06:23 61.9 °F /  16.6 °C 57.0 °F /  13.9 °C 29.75in /  1007.3hPa Calm     84% 0.00in /  0mm 0.0 W/m2
06:28 61.9 °F /  16.6 °C 57.0 °F /  13.9 °C 29.75in /  1007.3hPa Calm   4.0mph /  6.4km/h 84% 0.00in /  0mm 0.0 W/m2
06:34 61.9 °F /  16.6 °C 57.4 °F /  14.1 °C 29.75in /  1007.3hPa Calm     85% 0.00in /  0mm 0.0 W/m2
06:39 61.9 °F /  16.6 °C 57.6 °F /  14.2 °C 29.75in /  1007.3hPa Calm     86% 0.00in /  0mm 0.0 W/m2
06:44 61.9 °F /  16.6 °C 57.6 °F /  14.2 °C 29.75in /  1007.3hPa Calm     86% 0.00in /  0mm 0.0 W/m2
06:49 61.9 °F /  16.6 °C 57.9 °F /  14.4 °C 29.75in /  1007.3hPa Calm   2.0mph /  3.2km/h 87% 0.00in /  0mm 0.0 W/m2
06:54 61.9 °F /  16.6 °C 57.9 °F /  14.4 °C 29.76in /  1007.7hPa Calm     87% 0.00in /  0mm 0.0 W/m2
06:59 61.7 °F /  16.5 °C 57.7 °F /  14.3 °C 29.76in /  1007.7hPa Calm     87% 0.00in /  0mm 7.0 W/m2
07:04 61.7 °F /  16.5 °C 57.4 °F /  14.1 °C 29.76in /  1007.7hPa SE 0.9mph /  1.4km/h 4.0mph /  6.4km/h 86% 0.00in /  0mm 18.0 W/m2
07:10 61.5 °F /  16.4 °C 56.7 °F /  13.7 °C 29.76in /  1007.7hPa SE 4.0mph /  6.4km/h 7.0mph /  11.3km/h 84% 0.00in /  0mm 30.0 W/m2
07:15 61.9 °F /  16.6 °C 56.7 °F /  13.7 °C 29.76in /  1007.7hPa SE 0.9mph /  1.4km/h 5.0mph /  8km/h 83% 0.00in /  0mm 37.0 W/m2
07:20 62.2 °F /  16.8 °C 56.7 °F /  13.7 °C 29.76in /  1007.7hPa SE 0.9mph /  1.4km/h 6.0mph /  9.7km/h 82% 0.00in /  0mm 40.0 W/m2
07:25 62.6 °F /  17 °C 57.0 °F /  13.9 °C 29.76in /  1007.7hPa ESE 4.0mph /  6.4km/h 7.0mph /  11.3km/h 82% 0.00in /  0mm 40.0 W/m2
07:30 63.0 °F /  17.2 °C 57.4 °F /  14.1 °C 29.76in /  1007.7hPa Calm   1.0mph /  1.6km/h 82% 0.00in /  0mm 44.0 W/m2
07:35 63.0 °F /  17.2 °C 57.4 °F /  14.1 °C 29.77in /  1008hPa Calm   1.0mph /  1.6km/h 82% 0.00in /  0mm 47.0 W/m2
07:40 63.1 °F /  17.3 °C 57.2 °F /  14 °C 29.77in /  1008hPa Calm     81% 0.00in /  0mm 47.0 W/m2
07:45 63.1 °F /  17.3 °C 56.8 °F /  13.8 °C 29.77in /  1008hPa Calm   2.0mph /  3.2km/h 80% 0.00in /  0mm 53.0 W/m2
07:50 63.3 °F /  17.4 °C 56.7 °F /  13.7 °C 29.77in /  1008hPa ESE 0.9mph /  1.4km/h 2.0mph /  3.2km/h 79% 0.00in /  0mm 62.0 W/m2
07:55 63.5 °F /  17.5 °C 56.5 °F /  13.6 °C 29.77in /  1008hPa ESE 2.0mph /  3.2km/h 5.0mph /  8km/h 78% 0.00in /  0mm 72.0 W/m2
08:00 63.7 °F /  17.6 °C 56.7 °F /  13.7 °C 29.77in /  1008hPa East 2.0mph /  3.2km/h 2.0mph /  3.2km/h 78% 0.00in /  0mm 84.0 W/m2
08:05 64.0 °F /  17.8 °C 57.0 °F /  13.9 °C 29.77in /  1008hPa Calm   3.0mph /  4.8km/h 78% 0.00in /  0mm 97.0 W/m2
08:11 64.2 °F /  17.9 °C 56.8 °F /  13.8 °C 29.78in /  1008.4hPa Calm   1.0mph /  1.6km/h 77% 0.00in /  0mm 105.0 W/m2
08:16 64.4 °F /  18 °C 57.0 °F /  13.9 °C 29.78in /  1008.4hPa Calm   1.0mph /  1.6km/h 77% 0.00in /  0mm 113.0 W/m2
08:21 64.6 °F /  18.1 °C 57.2 °F /  14 °C 29.78in /  1008.4hPa ENE 2.0mph /  3.2km/h 3.0mph /  4.8km/h 77% 0.00in /  0mm 125.0 W/m2
08:26 64.9 °F /  18.3 °C 56.8 °F /  13.8 °C 29.78in /  1008.4hPa Calm   4.0mph /  6.4km/h 75% 0.00in /  0mm 144.0 W/m2
08:31 65.1 °F /  18.4 °C 56.7 °F /  13.7 °C 29.78in /  1008.4hPa Calm   1.0mph /  1.6km/h 74% 0.00in /  0mm 163.0 W/m2
08:36 65.5 °F /  18.6 °C 57.4 °F /  14.1 °C 29.78in /  1008.4hPa SE 2.0mph /  3.2km/h 3.0mph /  4.8km/h 75% 0.00in /  0mm 188.0 W/m2
08:41 65.7 °F /  18.7 °C 56.8 °F /  13.8 °C 29.78in /  1008.4hPa Calm   3.0mph /  4.8km/h 73% 0.00in /  0mm 202.0 W/m2
08:46 66.0 °F /  18.9 °C 57.2 °F /  14 °C 29.78in /  1008.4hPa ENE 2.0mph /  3.2km/h 4.0mph /  6.4km/h 73% 0.00in /  0mm 213.0 W/m2
08:51 66.6 °F /  19.2 °C 57.2 °F /  14 °C 29.79in /  1008.7hPa ESE 2.0mph /  3.2km/h 4.0mph /  6.4km/h 72% 0.00in /  0mm 197.0 W/m2
08:57 66.7 °F /  19.3 °C 57.0 °F /  13.9 °C 29.79in /  1008.7hPa Calm   4.0mph /  6.4km/h 71% 0.00in /  0mm 185.0 W/m2
09:02 66.9 °F /  19.4 °C 57.2 °F /  14 °C 29.78in /  1008.4hPa NE 2.0mph /  3.2km/h 4.0mph /  6.4km/h 71% 0.00in /  0mm 197.0 W/m2
09:07 66.9 °F /  19.4 °C 56.8 °F /  13.8 °C 29.78in /  1008.4hPa East 2.9mph /  4.7km/h 5.0mph /  8km/h 70% 0.00in /  0mm 227.0 W/m2
09:12 67.3 °F /  19.6 °C 57.2 °F /  14 °C 29.79in /  1008.7hPa NE 2.9mph /  4.7km/h 4.0mph /  6.4km/h 70% 0.00in /  0mm 239.0 W/m2
09:18 67.5 °F /  19.7 °C 57.0 °F /  13.9 °C 29.79in /  1008.7hPa ESE 0.9mph /  1.4km/h 5.0mph /  8km/h 69% 0.00in /  0mm 237.0 W/m2
09:23 67.5 °F /  19.7 °C 57.7 °F /  14.3 °C 29.79in /  1008.7hPa ESE 2.9mph /  4.7km/h 5.0mph /  8km/h 71% 0.00in /  0mm 225.0 W/m2
09:28 67.5 °F /  19.7 °C 57.4 °F /  14.1 °C 29.79in /  1008.7hPa Calm   7.0mph /  11.3km/h 70% 0.00in /  0mm 237.0 W/m2
09:33 67.6 °F /  19.8 °C 57.6 °F /  14.2 °C 29.79in /  1008.7hPa SE 4.0mph /  6.4km/h 6.0mph /  9.7km/h 70% 0.00in /  0mm 257.0 W/m2
09:38 67.8 °F /  19.9 °C 57.7 °F /  14.3 °C 29.79in /  1008.7hPa Calm   7.0mph /  11.3km/h 70% 0.00in /  0mm 322.0 W/m2
09:43 68.2 °F /  20.1 °C 58.5 °F /  14.7 °C 29.79in /  1008.7hPa NE 2.9mph /  4.7km/h 5.0mph /  8km/h 71% 0.00in /  0mm 338.0 W/m2
09:48 68.5 °F /  20.3 °C 58.3 °F /  14.6 °C 29.79in /  1008.7hPa ESE 0.9mph /  1.4km/h 4.0mph /  6.4km/h 70% 0.00in /  0mm 353.0 W/m2
09:53 68.9 °F /  20.5 °C 58.6 °F /  14.8 °C 29.79in /  1008.7hPa North 4.0mph /  6.4km/h 5.0mph /  8km/h 70% 0.00in /  0mm 411.0 W/m2
09:59 69.4 °F /  20.8 °C 58.5 °F /  14.7 °C 29.79in /  1008.7hPa NE 4.0mph /  6.4km/h 6.0mph /  9.7km/h 68% 0.00in /  0mm 475.0 W/m2
10:04 69.6 °F /  20.9 °C 58.1 °F /  14.5 °C 29.78in /  1008.4hPa East 0.9mph /  1.4km/h 6.0mph /  9.7km/h 67% 0.00in /  0mm 517.0 W/m2
10:09 70.2 °F /  21.2 °C 58.3 °F /  14.6 °C 29.78in /  1008.4hPa Calm   8.0mph /  12.9km/h 66% 0.00in /  0mm 520.0 W/m2
10:14 70.7 °F /  21.5 °C 57.9 °F /  14.4 °C 29.78in /  1008.4hPa NE 4.0mph /  6.4km/h 6.0mph /  9.7km/h 64% 0.00in /  0mm 555.0 W/m2
10:19 71.2 °F /  21.8 °C 58.5 °F /  14.7 °C 29.78in /  1008.4hPa East 4.9mph /  7.9km/h 9.0mph /  14.5km/h 64% 0.00in /  0mm 531.0 W/m2
10:24 71.4 °F /  21.9 °C 57.2 °F /  14 °C 29.78in /  1008.4hPa NNE 6.0mph /  9.7km/h 9.0mph /  14.5km/h 61% 0.00in /  0mm 571.0 W/m2
10:29 72.0 °F /  22.2 °C 58.3 °F /  14.6 °C 29.78in /  1008.4hPa NE 2.0mph /  3.2km/h 6.0mph /  9.7km/h 62% 0.00in /  0mm 619.0 W/m2
10:35 72.5 °F /  22.5 °C 58.8 °F /  14.9 °C 29.79in /  1008.7hPa North 6.9mph /  11.1km/h 7.0mph /  11.3km/h 62% 0.00in /  0mm 831.0 W/m2
10:40 73.0 °F /  22.8 °C 58.3 °F /  14.6 °C 29.79in /  1008.7hPa ENE 4.9mph /  7.9km/h 7.0mph /  11.3km/h 60% 0.00in /  0mm 659.0 W/m2
10:45 73.2 °F /  22.9 °C 58.1 °F /  14.5 °C 29.79in /  1008.7hPa East 6.0mph /  9.7km/h 9.0mph /  14.5km/h 59% 0.00in /  0mm 626.0 W/m2
10:50 73.2 °F /  22.9 °C 57.6 °F /  14.2 °C 29.79in /  1008.7hPa ENE 4.9mph /  7.9km/h 8.0mph /  12.9km/h 58% 0.00in /  0mm 670.0 W/m2
10:56 73.0 °F /  22.8 °C 57.9 °F /  14.4 °C 29.79in /  1008.7hPa Calm   9.0mph /  14.5km/h 59% 0.00in /  0mm 654.0 W/m2
11:01 73.2 °F /  22.9 °C 59.0 °F /  15 °C 29.79in /  1008.7hPa SSE 6.0mph /  9.7km/h 8.0mph /  12.9km/h 61% 0.00in /  0mm 550.0 W/m2
11:06 73.2 °F /  22.9 °C 58.1 °F /  14.5 °C 29.79in /  1008.7hPa ESE 4.9mph /  7.9km/h 13.0mph /  20.9km/h 59% 0.00in /  0mm 543.0 W/m2
11:11 73.2 °F /  22.9 °C 58.1 °F /  14.5 °C 29.79in /  1008.7hPa NE 8.9mph /  14.3km/h 11.0mph /  17.7km/h 59% 0.00in /  0mm 531.0 W/m2
11:17 72.9 °F /  22.7 °C 58.6 °F /  14.8 °C 29.79in /  1008.7hPa North 2.0mph /  3.2km/h 10.0mph /  16.1km/h 61% 0.00in /  0mm 508.0 W/m2
11:22 72.3 °F /  22.4 °C 58.6 °F /  14.8 °C 29.79in /  1008.7hPa NE 4.9mph /  7.9km/h 7.0mph /  11.3km/h 62% 0.00in /  0mm 499.0 W/m2
11:28 72.1 °F /  22.3 °C 58.5 °F /  14.7 °C 29.79in /  1008.7hPa East 11.0mph /  17.7km/h 11.0mph /  17.7km/h 62% 0.00in /  0mm 519.0 W/m2
11:33 72.1 °F /  22.3 °C 58.8 °F /  14.9 °C 29.79in /  1008.7hPa ENE 0.9mph /  1.4km/h 8.0mph /  12.9km/h 63% 0.00in /  0mm 626.0 W/m2
11:38 72.5 °F /  22.5 °C 59.2 °F /  15.1 °C 29.79in /  1008.7hPa SE 0.9mph /  1.4km/h 7.0mph /  11.3km/h 63% 0.00in /  0mm 775.0 W/m2
11:43 73.0 °F /  22.8 °C 59.7 °F /  15.4 °C 29.79in /  1008.7hPa ENE 2.9mph /  4.7km/h 5.0mph /  8km/h 63% 0.00in /  0mm 584.0 W/m2
11:48 73.6 °F /  23.1 °C 58.8 °F /  14.9 °C 29.79in /  1008.7hPa SE 2.9mph /  4.7km/h 5.0mph /  8km/h 60% 0.00in /  0mm 708.0 W/m2
11:53 73.9 °F /  23.3 °C 59.2 °F /  15.1 °C 29.79in /  1008.7hPa NE 6.9mph /  11.1km/h 11.0mph /  17.7km/h 60% 0.00in /  0mm 1097.0 W/m2
11:58 74.7 °F /  23.7 °C 59.9 °F /  15.5 °C 29.79in /  1008.7hPa SSE 4.0mph /  6.4km/h 8.0mph /  12.9km/h 60% 0.00in /  0mm 1071.0 W/m2
12:03 75.2 °F /  24 °C 59.4 °F /  15.2 °C 29.79in /  1008.7hPa NE 6.9mph /  11.1km/h 7.0mph /  11.3km/h 58% 0.00in /  0mm 1056.0 W/m2
12:09 75.6 °F /  24.2 °C 59.7 °F /  15.4 °C 29.79in /  1008.7hPa East 6.0mph /  9.7km/h 10.0mph /  16.1km/h 58% 0.00in /  0mm 963.0 W/m2
12:15 75.9 °F /  24.4 °C 58.1 °F /  14.5 °C 29.79in /  1008.7hPa NNE 0.9mph /  1.4km/h 7.0mph /  11.3km/h 54% 0.00in /  0mm 854.0 W/m2
12:20 76.3 °F /  24.6 °C 58.5 °F /  14.7 °C 29.79in /  1008.7hPa SSE 4.9mph /  7.9km/h 9.0mph /  14.5km/h 54% 0.00in /  0mm 763.0 W/m2
12:25 76.5 °F /  24.7 °C 58.1 °F /  14.5 °C 29.79in /  1008.7hPa East 4.9mph /  7.9km/h 9.0mph /  14.5km/h 53% 0.00in /  0mm 1220.0 W/m2
12:30 76.6 °F /  24.8 °C 57.7 °F /  14.3 °C 29.78in /  1008.4hPa NNE 6.9mph /  11.1km/h 8.0mph /  12.9km/h 52% 0.00in /  0mm 705.0 W/m2
12:35 76.6 °F /  24.8 °C 57.7 °F /  14.3 °C 29.78in /  1008.4hPa North 4.9mph /  7.9km/h 11.0mph /  17.7km/h 52% 0.00in /  0mm 814.0 W/m2
12:40 76.5 °F /  24.7 °C 57.6 °F /  14.2 °C 29.78in /  1008.4hPa ENE 2.0mph /  3.2km/h 8.0mph /  12.9km/h 52% 0.00in /  0mm 485.0 W/m2
12:45 76.5 °F /  24.7 °C 57.6 °F /  14.2 °C 29.78in /  1008.4hPa ENE 6.9mph /  11.1km/h 11.0mph /  17.7km/h 52% 0.00in /  0mm 1155.0 W/m2
12:51 76.8 °F /  24.9 °C 59.0 °F /  15 °C 29.78in /  1008.4hPa East 2.0mph /  3.2km/h 12.0mph /  19.3km/h 54% 0.00in /  0mm 1211.0 W/m2
12:56 77.4 °F /  25.2 °C 58.3 °F /  14.6 °C 29.78in /  1008.4hPa North 2.9mph /  4.7km/h 7.0mph /  11.3km/h 52% 0.00in /  0mm 1206.0 W/m2
13:01 78.1 °F /  25.6 °C 59.5 °F /  15.3 °C 29.78in /  1008.4hPa SSE 11.0mph /  17.7km/h 11.0mph /  17.7km/h 53% 0.00in /  0mm 1229.0 W/m2
13:06 78.6 °F /  25.9 °C 60.1 °F /  15.6 °C 29.78in /  1008.4hPa ESE 4.0mph /  6.4km/h 11.0mph /  17.7km/h 53% 0.00in /  0mm 1187.0 W/m2
13:11 78.6 °F /  25.9 °C 59.0 °F /  15 °C 29.78in /  1008.4hPa SE 2.9mph /  4.7km/h 8.0mph /  12.9km/h 51% 0.00in /  0mm 1190.0 W/m2
13:16 78.6 °F /  25.9 °C 59.0 °F /  15 °C 29.78in /  1008.4hPa ESE 2.0mph /  3.2km/h 9.0mph /  14.5km/h 51% 0.00in /  0mm 1179.0 W/m2
13:21 78.6 °F /  25.9 °C 58.5 °F /  14.7 °C 29.78in /  1008.4hPa NE 4.9mph /  7.9km/h 11.0mph /  17.7km/h 50% 0.00in /  0mm 956.0 W/m2
13:26 78.6 °F /  25.9 °C 58.5 °F /  14.7 °C 29.77in /  1008hPa NE 0.9mph /  1.4km/h 7.0mph /  11.3km/h 50% 0.00in /  0mm 383.0 W/m2
13:31 78.4 °F /  25.8 °C 58.8 °F /  14.9 °C 29.77in /  1008hPa North 4.9mph /  7.9km/h 14.0mph /  22.5km/h 51% 0.00in /  0mm 302.0 W/m2
13:36 78.6 °F /  25.9 °C 57.9 °F /  14.4 °C 29.77in /  1008hPa SE 4.9mph /  7.9km/h 15.0mph /  24.1km/h 49% 0.00in /  0mm 1352.0 W/m2
13:42 78.8 °F /  26 °C 58.1 °F /  14.5 °C 29.77in /  1008hPa NNE 4.9mph /  7.9km/h 7.0mph /  11.3km/h 49% 0.00in /  0mm 341.0 W/m2
13:47 78.4 °F /  25.8 °C 58.8 °F /  14.9 °C 29.77in /  1008hPa ESE 2.9mph /  4.7km/h 6.0mph /  9.7km/h 51% 0.00in /  0mm 299.0 W/m2
13:52 78.1 °F /  25.6 °C 57.4 °F /  14.1 °C 29.76in /  1007.7hPa NNE 4.0mph /  6.4km/h 10.0mph /  16.1km/h 49% 0.00in /  0mm 294.0 W/m2
13:57 77.5 °F /  25.3 °C 57.9 °F /  14.4 °C 29.76in /  1007.7hPa North 4.9mph /  7.9km/h 6.0mph /  9.7km/h 51% 0.00in /  0mm 445.0 W/m2
14:02 77.4 °F /  25.2 °C 57.2 °F /  14 °C 29.76in /  1007.7hPa NE 0.9mph /  1.4km/h 9.0mph /  14.5km/h 50% 0.00in /  0mm 654.0 W/m2
14:07 77.5 °F /  25.3 °C 57.4 °F /  14.1 °C 29.75in /  1007.3hPa ENE 2.9mph /  4.7km/h 6.0mph /  9.7km/h 50% 0.00in /  0mm 334.0 W/m2
14:12 77.5 °F /  25.3 °C 57.4 °F /  14.1 °C 29.75in /  1007.3hPa ENE 6.0mph /  9.7km/h 11.0mph /  17.7km/h 50% 0.00in /  0mm 446.0 W/m2
14:17 78.1 °F /  25.6 °C 57.4 °F /  14.1 °C 29.75in /  1007.3hPa North 2.9mph /  4.7km/h 9.0mph /  14.5km/h 49% 0.00in /  0mm 1241.0 W/m2
14:22 79.0 °F /  26.1 °C 57.0 °F /  13.9 °C 29.75in /  1007.3hPa NNE 8.1mph /  13km/h 13.0mph /  20.9km/h 47% 0.00in /  0mm 267.0 W/m2
14:27 78.6 °F /  25.9 °C 56.7 °F /  13.7 °C 29.75in /  1007.3hPa NNE 4.0mph /  6.4km/h 10.0mph /  16.1km/h 47% 0.00in /  0mm 236.0 W/m2
14:33 78.3 °F /  25.7 °C 57.6 °F /  14.2 °C 29.74in /  1007hPa NNW 4.0mph /  6.4km/h 6.0mph /  9.7km/h 49% 0.00in /  0mm 1187.0 W/m2
14:38 78.6 °F /  25.9 °C 57.9 °F /  14.4 °C 29.74in /  1007hPa East 6.9mph /  11.1km/h 11.0mph /  17.7km/h 49% 0.00in /  0mm 343.0 W/m2
14:43 79.5 °F /  26.4 °C 58.6 °F /  14.8 °C 29.73in /  1006.7hPa NE 6.9mph /  11.1km/h 9.0mph /  14.5km/h 49% 0.00in /  0mm 1069.0 W/m2
14:48 80.1 °F /  26.7 °C 57.4 °F /  14.1 °C 29.72in /  1006.3hPa Calm   5.0mph /  8km/h 46% 0.00in /  0mm 348.0 W/m2
14:53 80.2 °F /  26.8 °C 57.6 °F /  14.2 °C 29.72in /  1006.3hPa NNE 2.0mph /  3.2km/h 7.0mph /  11.3km/h 46% 0.00in /  0mm 1055.0 W/m2
14:58 80.8 °F /  27.1 °C 58.6 °F /  14.8 °C 29.72in /  1006.3hPa NE 6.9mph /  11.1km/h 10.0mph /  16.1km/h 47% 0.00in /  0mm 1106.0 W/m2
15:03 81.1 °F /  27.3 °C 57.2 °F /  14 °C 29.72in /  1006.3hPa NW 2.9mph /  4.7km/h 8.0mph /  12.9km/h 44% 0.00in /  0mm 246.0 W/m2
15:08 81.1 °F /  27.3 °C 57.2 °F /  14 °C 29.72in /  1006.3hPa North 4.0mph /  6.4km/h 11.0mph /  17.7km/h 44% 0.00in /  0mm 299.0 W/m2
15:13 80.6 °F /  27 °C 57.4 °F /  14.1 °C 29.71in /  1006hPa NNE 2.0mph /  3.2km/h 7.0mph /  11.3km/h 45% 0.00in /  0mm 1106.0 W/m2
15:18 81.0 °F /  27.2 °C 58.3 °F /  14.6 °C 29.71in /  1006hPa NW 15.0mph /  24.1km/h 16.0mph /  25.7km/h 46% 0.00in /  0mm 272.0 W/m2
15:24 79.5 °F /  26.4 °C 58.1 °F /  14.5 °C 29.72in /  1006.3hPa NNW 6.0mph /  9.7km/h 15.0mph /  24.1km/h 48% 0.00in /  0mm 1085.0 W/m2
15:29 79.0 °F /  26.1 °C 58.8 °F /  14.9 °C 29.72in /  1006.3hPa NNE 8.9mph /  14.3km/h 18.0mph /  29km/h 50% 0.00in /  0mm 1049.0 W/m2
15:34 78.3 °F /  25.7 °C 58.6 °F /  14.8 °C 29.72in /  1006.3hPa NNE 4.9mph /  7.9km/h 9.0mph /  14.5km/h 51% 0.00in /  0mm 947.0 W/m2
15:39 78.3 °F /  25.7 °C 57.0 °F /  13.9 °C 29.71in /  1006hPa North 8.9mph /  14.3km/h 12.0mph /  19.3km/h 48% 0.00in /  0mm 891.0 W/m2
15:44 78.3 °F /  25.7 °C 57.0 °F /  13.9 °C 29.71in /  1006hPa NNE 6.9mph /  11.1km/h 11.0mph /  17.7km/h 48% 0.00in /  0mm 874.0 W/m2
15:49 78.6 °F /  25.9 °C 57.2 °F /  14 °C 29.72in /  1006.3hPa North 6.9mph /  11.1km/h 7.0mph /  11.3km/h 48% 0.00in /  0mm 849.0 W/m2
15:54 79.0 °F /  26.1 °C 58.1 °F /  14.5 °C 29.71in /  1006hPa North 4.0mph /  6.4km/h 11.0mph /  17.7km/h 49% 0.00in /  0mm 770.0 W/m2
15:59 79.2 °F /  26.2 °C 57.7 °F /  14.3 °C 29.71in /  1006hPa NE 6.0mph /  9.7km/h 11.0mph /  17.7km/h 48% 0.00in /  0mm 782.0 W/m2
16:04 79.3 °F /  26.3 °C 57.4 °F /  14.1 °C 29.71in /  1006hPa NE 4.9mph /  7.9km/h 10.0mph /  16.1km/h 47% 0.00in /  0mm 649.0 W/m2
16:10 79.5 °F /  26.4 °C 57.6 °F /  14.2 °C 29.70in /  1005.6hPa NNW 4.0mph /  6.4km/h 7.0mph /  11.3km/h 47% 0.00in /  0mm 633.0 W/m2
16:15 79.9 °F /  26.6 °C 57.2 °F /  14 °C 29.70in /  1005.6hPa NE 4.0mph /  6.4km/h 5.0mph /  8km/h 46% 0.00in /  0mm 694.0 W/m2
16:20 80.1 °F /  26.7 °C 58.1 °F /  14.5 °C 29.70in /  1005.6hPa NW 2.9mph /  4.7km/h 6.0mph /  9.7km/h 47% 0.00in /  0mm 729.0 W/m2
16:25 80.1 °F /  26.7 °C 56.8 °F /  13.8 °C 29.70in /  1005.6hPa North 4.0mph /  6.4km/h 10.0mph /  16.1km/h 45% 0.00in /  0mm 190.0 W/m2
16:30 79.7 °F /  26.5 °C 57.7 °F /  14.3 °C 29.70in /  1005.6hPa NNW 2.0mph /  3.2km/h 3.0mph /  4.8km/h 47% 0.00in /  0mm 200.0 W/m2
16:35 79.3 °F /  26.3 °C 56.8 °F /  13.8 °C 29.70in /  1005.6hPa North 2.0mph /  3.2km/h 8.0mph /  12.9km/h 46% 0.00in /  0mm 156.0 W/m2
16:40 79.0 °F /  26.1 °C 57.6 °F /  14.2 °C 29.70in /  1005.6hPa North 4.0mph /  6.4km/h 7.0mph /  11.3km/h 48% 0.00in /  0mm 357.0 W/m2
16:45 78.6 °F /  25.9 °C 57.2 °F /  14 °C 29.70in /  1005.6hPa North 2.9mph /  4.7km/h 7.0mph /  11.3km/h 48% 0.00in /  0mm 142.0 W/m2
16:51 78.3 °F /  25.7 °C 57.6 °F /  14.2 °C 29.70in /  1005.6hPa NNW 2.0mph /  3.2km/h 5.0mph /  8km/h 49% 0.00in /  0mm 153.0 W/m2
16:57 77.7 °F /  25.4 °C 57.6 °F /  14.2 °C 29.70in /  1005.6hPa North 6.0mph /  9.7km/h 12.0mph /  19.3km/h 50% 0.00in /  0mm 183.0 W/m2
17:02 77.2 °F /  25.1 °C 57.0 °F /  13.9 °C 29.70in /  1005.6hPa NNW 4.9mph /  7.9km/h 8.0mph /  12.9km/h 50% 0.00in /  0mm 165.0 W/m2
17:07 77.0 °F /  25 °C 57.6 °F /  14.2 °C 29.70in /  1005.6hPa NNW 2.9mph /  4.7km/h 9.0mph /  14.5km/h 51% 0.00in /  0mm 146.0 W/m2
17:12 76.8 °F /  24.9 °C 57.4 °F /  14.1 °C 29.70in /  1005.6hPa North 4.0mph /  6.4km/h 7.0mph /  11.3km/h 51% 0.00in /  0mm 123.0 W/m2
17:17 76.5 °F /  24.7 °C 57.0 °F /  13.9 °C 29.70in /  1005.6hPa NNE 4.0mph /  6.4km/h 8.0mph /  12.9km/h 51% 0.00in /  0mm 98.0 W/m2
17:22 76.3 °F /  24.6 °C 57.9 °F /  14.4 °C 29.70in /  1005.6hPa NE 6.9mph /  11.1km/h 9.0mph /  14.5km/h 53% 0.00in /  0mm 81.0 W/m2
17:27 75.9 °F /  24.4 °C 57.0 °F /  13.9 °C 29.70in /  1005.6hPa NNE 2.0mph /  3.2km/h 5.0mph /  8km/h 52% 0.00in /  0mm 67.0 W/m2
17:32 75.7 °F /  24.3 °C 57.4 °F /  14.1 °C 29.70in /  1005.6hPa NNE 4.9mph /  7.9km/h 7.0mph /  11.3km/h 53% 0.00in /  0mm 58.0 W/m2
17:37 75.6 °F /  24.2 °C 57.2 °F /  14 °C 29.70in /  1005.6hPa North 2.9mph /  4.7km/h 6.0mph /  9.7km/h 53% 0.00in /  0mm 58.0 W/m2
17:42 75.4 °F /  24.1 °C 57.6 °F /  14.2 °C 29.70in /  1005.6hPa NNE 2.9mph /  4.7km/h 5.0mph /  8km/h 54% 0.00in /  0mm 65.0 W/m2
17:48 75.4 °F /  24.1 °C 57.0 °F /  13.9 °C 29.70in /  1005.6hPa NNE 2.9mph /  4.7km/h 5.0mph /  8km/h 53% 0.00in /  0mm 77.0 W/m2
17:53 75.4 °F /  24.1 °C 57.6 °F /  14.2 °C 29.70in /  1005.6hPa Calm   3.0mph /  4.8km/h 54% 0.00in /  0mm 86.0 W/m2
17:58 75.4 °F /  24.1 °C 57.0 °F /  13.9 °C 29.70in /  1005.6hPa NW 2.0mph /  3.2km/h 6.0mph /  9.7km/h 53% 0.00in /  0mm 95.0 W/m2
18:03 75.4 °F /  24.1 °C 56.5 °F /  13.6 °C 29.71in /  1006hPa North 2.0mph /  3.2km/h 3.0mph /  4.8km/h 52% 0.00in /  0mm 93.0 W/m2
18:08 75.6 °F /  24.2 °C 56.7 °F /  13.7 °C 29.71in /  1006hPa Calm   5.0mph /  8km/h 52% 0.00in /  0mm 137.0 W/m2
18:13 75.6 °F /  24.2 °C 56.7 °F /  13.7 °C 29.71in /  1006hPa North 0.9mph /  1.4km/h 4.0mph /  6.4km/h 52% 0.00in /  0mm 102.0 W/m2
18:18 75.6 °F /  24.2 °C 55.6 °F /  13.1 °C 29.71in /  1006hPa NW 2.9mph /  4.7km/h 5.0mph /  8km/h 50% 0.00in /  0mm 77.0 W/m2
18:23 75.7 °F /  24.3 °C 56.3 °F /  13.5 °C 29.71in /  1006hPa NNW 2.0mph /  3.2km/h 4.0mph /  6.4km/h 51% 0.00in /  0mm 46.0 W/m2
18:28 75.7 °F /  24.3 °C 57.9 °F /  14.4 °C 29.72in /  1006.3hPa West 2.0mph /  3.2km/h 3.0mph /  4.8km/h 54% 0.00in /  0mm 35.0 W/m2
18:33 75.2 °F /  24 °C 59.4 °F /  15.2 °C 29.72in /  1006.3hPa WSW 6.9mph /  11.1km/h 8.0mph /  12.9km/h 58% 0.00in /  0mm 39.0 W/m2
18:39 74.7 °F /  23.7 °C 59.9 °F /  15.5 °C 29.72in /  1006.3hPa Calm   5.0mph /  8km/h 60% 0.00in /  0mm 42.0 W/m2
18:44 74.1 °F /  23.4 °C 61.5 °F /  16.4 °C 29.72in /  1006.3hPa Calm   2.0mph /  3.2km/h 65% 0.00in /  0mm 39.0 W/m2
18:49 73.6 °F /  23.1 °C 61.5 °F /  16.4 °C 29.73in /  1006.7hPa Calm   2.0mph /  3.2km/h 66% 0.00in /  0mm 26.0 W/m2
18:54 73.0 °F /  22.8 °C 61.5 °F /  16.4 °C 29.74in /  1007hPa WNW 2.0mph /  3.2km/h 5.0mph /  8km/h 67% 0.00in /  0mm 18.0 W/m2
18:59 72.7 °F /  22.6 °C 60.6 °F /  15.9 °C 29.74in /  1007hPa NNW 0.9mph /  1.4km/h 3.0mph /  4.8km/h 66% 0.00in /  0mm 9.0 W/m2
19:04 72.1 °F /  22.3 °C 60.6 °F /  15.9 °C 29.75in /  1007.3hPa NW 0.9mph /  1.4km/h 4.0mph /  6.4km/h 67% 0.00in /  0mm 9.0 W/m2
19:09 71.8 °F /  22.1 °C 60.3 °F /  15.7 °C 29.75in /  1007.3hPa Calm   3.0mph /  4.8km/h 67% 0.00in /  0mm 5.0 W/m2
19:14 71.4 °F /  21.9 °C 60.3 °F /  15.7 °C 29.76in /  1007.7hPa Calm   3.0mph /  4.8km/h 68% 0.00in /  0mm 0.0 W/m2
19:19 71.2 °F /  21.8 °C 60.1 °F /  15.6 °C 29.76in /  1007.7hPa WNW 4.0mph /  6.4km/h 11.0mph /  17.7km/h 68% 0.00in /  0mm 0.0 W/m2
19:25 70.7 °F /  21.5 °C 60.1 °F /  15.6 °C 29.76in /  1007.7hPa WSW 0.9mph /  1.4km/h 6.0mph /  9.7km/h 69% 0.00in /  0mm 0.0 W/m2
19:30 70.3 °F /  21.3 °C 60.1 °F /  15.6 °C 29.76in /  1007.7hPa Calm   5.0mph /  8km/h 70% 0.00in /  0mm 0.0 W/m2
19:35 70.0 °F /  21.1 °C 59.7 °F /  15.4 °C 29.75in /  1007.3hPa West 2.9mph /  4.7km/h 6.0mph /  9.7km/h 70% 0.00in /  0mm 0.0 W/m2
19:40 69.6 °F /  20.9 °C 59.7 °F /  15.4 °C 29.76in /  1007.7hPa Calm   1.0mph /  1.6km/h 71% 0.00in /  0mm 0.0 W/m2
19:45 69.6 °F /  20.9 °C 59.7 °F /  15.4 °C 29.76in /  1007.7hPa NNE 6.0mph /  9.7km/h 7.0mph /  11.3km/h 71% 0.00in /  0mm 0.0 W/m2
19:50 69.4 °F /  20.8 °C 60.1 °F /  15.6 °C 29.77in /  1008hPa Calm   2.0mph /  3.2km/h 72% 0.00in /  0mm 0.0 W/m2
19:55 69.4 °F /  20.8 °C 60.1 °F /  15.6 °C 29.77in /  1008hPa Calm   3.0mph /  4.8km/h 72% 0.00in /  0mm 0.0 W/m2
20:00 69.3 °F /  20.7 °C 59.5 °F /  15.3 °C 29.78in /  1008.4hPa NW 2.0mph /  3.2km/h 4.0mph /  6.4km/h 71% 0.00in /  0mm 0.0 W/m2
20:06 69.3 °F /  20.7 °C 59.5 °F /  15.3 °C 29.78in /  1008.4hPa Calm   3.0mph /  4.8km/h 71% 0.00in /  0mm 0.0 W/m2
20:11 69.3 °F /  20.7 °C 59.5 °F /  15.3 °C 29.78in /  1008.4hPa Calm   1.0mph /  1.6km/h 71% 0.00in /  0mm 0.0 W/m2
20:17 69.3 °F /  20.7 °C 59.5 °F /  15.3 °C 29.78in /  1008.4hPa Calm     71% 0.00in /  0mm 0.0 W/m2
20:22 69.3 °F /  20.7 °C 59.0 °F /  15 °C 29.78in /  1008.4hPa Calm     70% 0.00in /  0mm 0.0 W/m2
20:27 69.3 °F /  20.7 °C 59.0 °F /  15 °C 29.79in /  1008.7hPa Calm     70% 0.00in /  0mm 0.0 W/m2
20:32 69.1 °F /  20.6 °C 58.8 °F /  14.9 °C 29.79in /  1008.7hPa Calm   1.0mph /  1.6km/h 70% 0.00in /  0mm 0.0 W/m2
20:37 69.1 °F /  20.6 °C 59.4 °F /  15.2 °C 29.79in /  1008.7hPa Calm     71% 0.00in /  0mm 0.0 W/m2
20:42 69.1 °F /  20.6 °C 59.4 °F /  15.2 °C 29.78in /  1008.4hPa Calm     71% 0.00in /  0mm 0.0 W/m2
20:47 69.3 °F /  20.7 °C 59.5 °F /  15.3 °C 29.79in /  1008.7hPa SSW 0.9mph /  1.4km/h 3.0mph /  4.8km/h 71% 0.00in /  0mm 0.0 W/m2
20:52 69.3 °F /  20.7 °C 59.9 °F /  15.5 °C 29.79in /  1008.7hPa Calm   1.0mph /  1.6km/h 72% 0.00in /  0mm 0.0 W/m2
20:58 69.3 °F /  20.7 °C 59.9 °F /  15.5 °C 29.79in /  1008.7hPa Calm   2.0mph /  3.2km/h 72% 0.00in /  0mm 0.0 W/m2
21:03 69.3 °F /  20.7 °C 60.6 °F /  15.9 °C 29.78in /  1008.4hPa Calm   2.0mph /  3.2km/h 74% 0.00in /  0mm 0.0 W/m2
21:08 69.3 °F /  20.7 °C 60.6 °F /  15.9 °C 29.78in /  1008.4hPa Calm   2.0mph /  3.2km/h 74% 0.00in /  0mm 0.0 W/m2
21:13 69.1 °F /  20.6 °C 60.4 °F /  15.8 °C 29.78in /  1008.4hPa SSE 0.9mph /  1.4km/h 1.0mph /  1.6km/h 74% 0.00in /  0mm 0.0 W/m2
21:18 68.9 °F /  20.5 °C 59.9 °F /  15.5 °C 29.78in /  1008.4hPa Calm   1.0mph /  1.6km/h 73% 0.00in /  0mm 0.0 W/m2
21:23 68.7 °F /  20.4 °C 59.7 °F /  15.4 °C 29.78in /  1008.4hPa Calm   1.0mph /  1.6km/h 73% 0.00in /  0mm 0.0 W/m2
21:28 68.7 °F /  20.4 °C 59.7 °F /  15.4 °C 29.78in /  1008.4hPa SE 0.9mph /  1.4km/h 2.0mph /  3.2km/h 73% 0.00in /  0mm 0.0 W/m2
21:33 68.7 °F /  20.4 °C 60.1 °F /  15.6 °C 29.78in /  1008.4hPa SE 0.9mph /  1.4km/h 2.0mph /  3.2km/h 74% 0.00in /  0mm 0.0 W/m2
21:38 68.7 °F /  20.4 °C 60.1 °F /  15.6 °C 29.78in /  1008.4hPa SE 6.9mph /  11.1km/h 7.0mph /  11.3km/h 74% 0.00in /  0mm 0.0 W/m2
21:43 68.5 °F /  20.3 °C 59.9 °F /  15.5 °C 29.78in /  1008.4hPa Calm   2.0mph /  3.2km/h 74% 0.00in /  0mm 0.0 W/m2
21:49 68.4 °F /  20.2 °C 59.7 °F /  15.4 °C 29.78in /  1008.4hPa Calm   5.0mph /  8km/h 74% 0.00in /  0mm 0.0 W/m2
21:54 68.2 °F /  20.1 °C 59.5 °F /  15.3 °C 29.79in /  1008.7hPa SSE 0.9mph /  1.4km/h 6.0mph /  9.7km/h 74% 0.00in /  0mm 0.0 W/m2
21:59 68.0 °F /  20 °C 59.0 °F /  15 °C 29.79in /  1008.7hPa Calm   2.0mph /  3.2km/h 73% 0.00in /  0mm 0.0 W/m2
22:04 67.8 °F /  19.9 °C 59.2 °F /  15.1 °C 29.79in /  1008.7hPa South 2.0mph /  3.2km/h 2.0mph /  3.2km/h 74% 0.00in /  0mm 0.0 W/m2
22:09 67.8 °F /  19.9 °C 58.8 °F /  14.9 °C 29.79in /  1008.7hPa SE 0.9mph /  1.4km/h 4.0mph /  6.4km/h 73% 0.00in /  0mm 0.0 W/m2
22:14 67.8 °F /  19.9 °C 58.8 °F /  14.9 °C 29.80in /  1009hPa Calm     73% 0.00in /  0mm 0.0 W/m2
22:20 67.8 °F /  19.9 °C 58.8 °F /  14.9 °C 29.80in /  1009hPa Calm   3.0mph /  4.8km/h 73% 0.00in /  0mm 0.0 W/m2
22:26 67.8 °F /  19.9 °C 58.8 °F /  14.9 °C 29.81in /  1009.4hPa SE 2.0mph /  3.2km/h 4.0mph /  6.4km/h 73% 0.00in /  0mm 0.0 W/m2
22:31 67.8 °F /  19.9 °C 58.8 °F /  14.9 °C 29.81in /  1009.4hPa SSE 0.9mph /  1.4km/h 5.0mph /  8km/h 73% 0.00in /  0mm 0.0 W/m2
22:37 67.6 °F /  19.8 °C 58.6 °F /  14.8 °C 29.81in /  1009.4hPa Calm   4.0mph /  6.4km/h 73% 0.00in /  0mm 0.0 W/m2
22:42 67.6 °F /  19.8 °C 59.0 °F /  15 °C 29.81in /  1009.4hPa Calm   1.0mph /  1.6km/h 74% 0.00in /  0mm 0.0 W/m2
22:47 67.6 °F /  19.8 °C 58.6 °F /  14.8 °C 29.82in /  1009.7hPa Calm   1.0mph /  1.6km/h 73% 0.00in /  0mm 0.0 W/m2
22:52 67.5 °F /  19.7 °C 58.1 °F /  14.5 °C 29.82in /  1009.7hPa Calm   1.0mph /  1.6km/h 72% 0.00in /  0mm 0.0 W/m2
22:57 67.5 °F /  19.7 °C 58.5 °F /  14.7 °C 29.82in /  1009.7hPa Calm     73% 0.00in /  0mm 0.0 W/m2
23:03 67.5 °F /  19.7 °C 58.1 °F /  14.5 °C 29.82in /  1009.7hPa Calm   3.0mph /  4.8km/h 72% 0.00in /  0mm 0.0 W/m2
23:09 67.5 °F /  19.7 °C 57.7 °F /  14.3 °C 29.82in /  1009.7hPa SW 0.9mph /  1.4km/h 2.0mph /  3.2km/h 71% 0.00in /  0mm 0.0 W/m2
23:14 67.5 °F /  19.7 °C 57.7 °F /  14.3 °C 29.83in /  1010hPa SSW 0.9mph /  1.4km/h 3.0mph /  4.8km/h 71% 0.00in /  0mm 0.0 W/m2
23:19 67.5 °F /  19.7 °C 57.7 °F /  14.3 °C 29.83in /  1010hPa SW 4.0mph /  6.4km/h 4.0mph /  6.4km/h 71% 0.00in /  0mm 0.0 W/m2
23:25 67.5 °F /  19.7 °C 57.7 °F /  14.3 °C 29.83in /  1010hPa Calm   2.0mph /  3.2km/h 71% 0.00in /  0mm 0.0 W/m2
23:30 67.5 °F /  19.7 °C 57.7 °F /  14.3 °C 29.83in /  1010hPa Calm   2.0mph /  3.2km/h 71% 0.00in /  0mm 0.0 W/m2
23:35 67.5 °F /  19.7 °C 58.1 °F /  14.5 °C 29.83in /  1010hPa SSE 2.0mph /  3.2km/h 3.0mph /  4.8km/h 72% 0.00in /  0mm 0.0 W/m2
23:40 67.5 °F /  19.7 °C 58.1 °F /  14.5 °C 29.84in /  1010.4hPa South 2.0mph /  3.2km/h 4.0mph /  6.4km/h 72% 0.00in /  0mm 0.0 W/m2
23:45 67.5 °F /  19.7 °C 57.7 °F /  14.3 °C 29.84in /  1010.4hPa SSW 2.9mph /  4.7km/h 3.0mph /  4.8km/h 71% 0.00in /  0mm 0.0 W/m2
23:51 67.5 °F /  19.7 °C 57.4 °F /  14.1 °C 29.84in /  1010.4hPa SSE 2.0mph /  3.2km/h 6.0mph /  9.7km/h 70% 0.00in /  0mm 0.0 W/m2
23:56 67.5 °F /  19.7 °C 57.7 °F /  14.3 °C 29.83in /  1010hPa Calm   1.0mph /  1.6km/h 71% 0.00in /  0mm 0.0 W/m2
Olympia, Windhoek, Namibia
Compliments of Weather Underground - 3.25 mb